sensor_id;sensor_type;location;lat;lon;timestamp;temperature;humidity
9193;DHT22;4631;49.296;10.560;2024-03-23T00:54:28;9.40;99.90
9193;DHT22;4631;49.296;10.560;2024-03-23T00:56:55;9.30;99.90
9193;DHT22;4631;49.296;10.560;2024-03-23T00:59:21;9.30;99.90
9193;DHT22;4631;49.296;10.560;2024-03-23T01:01:52;9.30;99.90
9193;DHT22;4631;49.296;10.560;2024-03-23T01:04:17;9.30;99.90
9193;DHT22;4631;49.296;10.560;2024-03-23T01:06:44;9.30;99.90
9193;DHT22;4631;49.296;10.560;2024-03-23T01:09:10;9.20;99.90
9193;DHT22;4631;49.296;10.560;2024-03-23T01:11:38;9.20;99.90
9193;DHT22;4631;49.296;10.560;2024-03-23T01:14:04;9.20;99.90
9193;DHT22;4631;49.296;10.560;2024-03-23T01:16:31;9.20;99.90
9193;DHT22;4631;49.296;10.560;2024-03-23T01:18:57;9.10;99.90
9193;DHT22;4631;49.296;10.560;2024-03-23T01:21:23;9.10;99.90
9193;DHT22;4631;49.296;10.560;2024-03-23T01:23:49;9.10;99.90
9193;DHT22;4631;49.296;10.560;2024-03-23T01:26:16;9.10;99.90
9193;DHT22;4631;49.296;10.560;2024-03-23T01:28:43;9.00;99.90
9193;DHT22;4631;49.296;10.560;2024-03-23T01:31:09;8.90;99.90
9193;DHT22;4631;49.296;10.560;2024-03-23T01:33:35;8.90;99.90
9193;DHT22;4631;49.296;10.560;2024-03-23T01:36:02;8.80;99.90
9193;DHT22;4631;49.296;10.560;2024-03-23T01:38:28;8.80;99.90
9193;DHT22;4631;49.296;10.560;2024-03-23T01:40:56;8.70;99.90
9193;DHT22;4631;49.296;10.560;2024-03-23T01:43:22;8.70;99.90
9193;DHT22;4631;49.296;10.560;2024-03-23T01:45:50;8.70;99.90
9193;DHT22;4631;49.296;10.560;2024-03-23T01:48:16;8.70;99.90
9193;DHT22;4631;49.296;10.560;2024-03-23T01:50:42;8.70;99.90
9193;DHT22;4631;49.296;10.560;2024-03-23T01:53:08;8.70;99.90
9193;DHT22;4631;49.296;10.560;2024-03-23T01:55:35;8.70;99.90
9193;DHT22;4631;49.296;10.560;2024-03-23T01:58:00;8.60;99.90
9193;DHT22;4631;49.296;10.560;2024-03-23T02:00:27;8.60;99.90
9193;DHT22;4631;49.296;10.560;2024-03-23T02:02:54;8.60;99.90
9193;DHT22;4631;49.296;10.560;2024-03-23T02:05:21;8.60;99.90
9193;DHT22;4631;49.296;10.560;2024-03-23T02:07:47;8.60;99.90
9193;DHT22;4631;49.296;10.560;2024-03-23T02:10:14;8.60;99.90
9193;DHT22;4631;49.296;10.560;2024-03-23T02:12:40;8.60;99.90
9193;DHT22;4631;49.296;10.560;2024-03-23T02:15:07;8.50;99.90
9193;DHT22;4631;49.296;10.560;2024-03-23T02:17:34;8.50;99.90
9193;DHT22;4631;49.296;10.560;2024-03-23T02:20:03;8.60;99.90
9193;DHT22;4631;49.296;10.560;2024-03-23T02:22:35;8.60;99.90
9193;DHT22;4631;49.296;10.560;2024-03-23T02:25:03;8.60;99.90
9193;DHT22;4631;49.296;10.560;2024-03-23T02:27:29;8.60;99.90
9193;DHT22;4631;49.296;10.560;2024-03-23T02:29:55;8.60;99.90
9193;DHT22;4631;49.296;10.560;2024-03-23T02:32:21;8.60;99.90
9193;DHT22;4631;49.296;10.560;2024-03-23T02:34:48;8.60;99.90
9193;DHT22;4631;49.296;10.560;2024-03-23T02:37:13;8.60;99.90
9193;DHT22;4631;49.296;10.560;2024-03-23T02:39:40;8.60;99.90
9193;DHT22;4631;49.296;10.560;2024-03-23T02:42:07;8.70;99.90
9193;DHT22;4631;49.296;10.560;2024-03-23T02:44:34;8.70;99.90
9193;DHT22;4631;49.296;10.560;2024-03-23T02:46:59;8.70;99.90
9193;DHT22;4631;49.296;10.560;2024-03-23T02:49:26;8.70;99.90
9193;DHT22;4631;49.296;10.560;2024-03-23T02:51:52;8.60;99.90
9193;DHT22;4631;49.296;10.560;2024-03-23T02:54:19;8.60;99.90
9193;DHT22;4631;49.296;10.560;2024-03-23T02:56:44;8.60;99.90
9193;DHT22;4631;49.296;10.560;2024-03-23T02:59:12;8.60;99.90
9193;DHT22;4631;49.296;10.560;2024-03-23T03:01:38;8.70;99.90
9193;DHT22;4631;49.296;10.560;2024-03-23T03:04:04;8.60;99.90
9193;DHT22;4631;49.296;10.560;2024-03-23T03:06:30;8.60;99.90
9193;DHT22;4631;49.296;10.560;2024-03-23T03:08:57;8.60;99.90
9193;DHT22;4631;49.296;10.560;2024-03-23T03:11:23;8.60;99.90
9193;DHT22;4631;49.296;10.560;2024-03-23T03:13:49;8.60;99.90
9193;DHT22;4631;49.296;10.560;2024-03-23T03:16:16;8.60;99.90
9193;DHT22;4631;49.296;10.560;2024-03-23T03:18:43;8.60;99.90
9193;DHT22;4631;49.296;10.560;2024-03-23T03:21:09;8.60;99.90
9193;DHT22;4631;49.296;10.560;2024-03-23T03:23:37;8.60;99.90
9193;DHT22;4631;49.296;10.560;2024-03-23T03:26:03;8.60;99.90
9193;DHT22;4631;49.296;10.560;2024-03-23T03:28:29;8.60;99.90
9193;DHT22;4631;49.296;10.560;2024-03-23T03:30:56;8.60;99.90
9193;DHT22;4631;49.296;10.560;2024-03-23T03:33:24;8.60;99.90
9193;DHT22;4631;49.296;10.560;2024-03-23T03:35:50;8.60;99.90
9193;DHT22;4631;49.296;10.560;2024-03-23T03:38:18;8.70;99.90
9193;DHT22;4631;49.296;10.560;2024-03-23T03:40:45;8.80;99.90
9193;DHT22;4631;49.296;10.560;2024-03-23T03:43:12;8.90;99.90
9193;DHT22;4631;49.296;10.560;2024-03-23T03:45:37;9.10;99.90
9193;DHT22;4631;49.296;10.560;2024-03-23T03:48:04;9.10;99.90
9193;DHT22;4631;49.296;10.560;2024-03-23T03:50:31;9.20;99.90
9193;DHT22;4631;49.296;10.560;2024-03-23T03:52:58;9.20;99.90
9193;DHT22;4631;49.296;10.560;2024-03-23T03:55:23;9.20;99.90
9193;DHT22;4631;49.296;10.560;2024-03-23T03:57:50;9.20;99.90
9193;DHT22;4631;49.296;10.560;2024-03-23T04:00:16;9.20;99.90
9193;DHT22;4631;49.296;10.560;2024-03-23T04:02:43;9.30;99.90
9193;DHT22;4631;49.296;10.560;2024-03-23T04:05:08;9.40;99.90
9193;DHT22;4631;49.296;10.560;2024-03-23T04:07:36;9.60;99.90
9193;DHT22;4631;49.296;10.560;2024-03-23T04:10:02;9.70;99.90
9193;DHT22;4631;49.296;10.560;2024-03-23T04:12:32;9.90;99.90
9193;DHT22;4631;49.296;10.560;2024-03-23T04:14:58;9.90;99.90
9193;DHT22;4631;49.296;10.560;2024-03-23T04:17:24;10.00;99.90
9193;DHT22;4631;49.296;10.560;2024-03-23T04:19:50;10.10;99.90
9193;DHT22;4631;49.296;10.560;2024-03-23T04:22:17;10.10;99.90
9193;DHT22;4631;49.296;10.560;2024-03-23T04:24:44;10.20;99.90
9193;DHT22;4631;49.296;10.560;2024-03-23T04:27:11;10.20;99.90
9193;DHT22;4631;49.296;10.560;2024-03-23T04:29:37;10.20;99.90
9193;DHT22;4631;49.296;10.560;2024-03-23T04:32:03;10.10;99.90
9193;DHT22;4631;49.296;10.560;2024-03-23T04:34:30;10.10;99.90
9193;DHT22;4631;49.296;10.560;2024-03-23T04:36:58;10.10;99.90
9193;DHT22;4631;49.296;10.560;2024-03-23T04:39:23;10.00;99.90
9193;DHT22;4631;49.296;10.560;2024-03-23T04:41:51;9.90;99.90
9193;DHT22;4631;49.296;10.560;2024-03-23T04:44:18;9.80;99.90
9193;DHT22;4631;49.296;10.560;2024-03-23T04:46:45;9.80;99.90
9193;DHT22;4631;49.296;10.560;2024-03-23T04:49:11;9.70;99.90
9193;DHT22;4631;49.296;10.560;2024-03-23T04:51:38;9.70;99.90
9193;DHT22;4631;49.296;10.560;2024-03-23T04:54:07;9.60;99.90
9193;DHT22;4631;49.296;10.560;2024-03-23T04:56:33;9.50;99.90
9193;DHT22;4631;49.296;10.560;2024-03-23T04:59:03;9.50;99.90
9193;DHT22;4631;49.296;10.560;2024-03-23T05:01:30;9.50;99.90
9193;DHT22;4631;49.296;10.560;2024-03-23T05:03:57;9.40;99.90
9193;DHT22;4631;49.296;10.560;2024-03-23T05:06:22;9.40;99.90
9193;DHT22;4631;49.296;10.560;2024-03-23T05:08:49;9.40;99.90
9193;DHT22;4631;49.296;10.560;2024-03-23T05:11:15;9.40;99.90
9193;DHT22;4631;49.296;10.560;2024-03-23T05:13:42;9.40;99.90
9193;DHT22;4631;49.296;10.560;2024-03-23T05:16:09;9.40;99.90
9193;DHT22;4631;49.296;10.560;2024-03-23T05:18:35;9.30;99.90
9193;DHT22;4631;49.296;10.560;2024-03-23T05:21:01;9.30;99.90
9193;DHT22;4631;49.296;10.560;2024-03-23T05:23:28;9.20;99.90
9193;DHT22;4631;49.296;10.560;2024-03-23T05:25:54;9.30;99.90
9193;DHT22;4631;49.296;10.560;2024-03-23T05:28:21;9.20;99.90
9193;DHT22;4631;49.296;10.560;2024-03-23T05:30:49;9.30;99.90
9193;DHT22;4631;49.296;10.560;2024-03-23T05:33:17;9.20;99.90
9193;DHT22;4631;49.296;10.560;2024-03-23T05:35:43;9.30;99.90
9193;DHT22;4631;49.296;10.560;2024-03-23T05:38:10;9.30;99.90
9193;DHT22;4631;49.296;10.560;2024-03-23T05:40:35;9.30;99.90
9193;DHT22;4631;49.296;10.560;2024-03-23T05:43:02;9.30;99.90
9193;DHT22;4631;49.296;10.560;2024-03-23T05:45:28;9.30;99.90
9193;DHT22;4631;49.296;10.560;2024-03-23T05:47:55;9.30;99.90
9193;DHT22;4631;49.296;10.560;2024-03-23T05:50:23;9.30;99.90
9193;DHT22;4631;49.296;10.560;2024-03-23T05:52:50;9.40;99.90
9193;DHT22;4631;49.296;10.560;2024-03-23T05:55:16;9.50;99.90
9193;DHT22;4631;49.296;10.560;2024-03-23T05:57:43;9.50;99.90
9193;DHT22;4631;49.296;10.560;2024-03-23T06:00:09;9.50;99.90
9193;DHT22;4631;49.296;10.560;2024-03-23T06:02:41;9.50;99.90
9193;DHT22;4631;49.296;10.560;2024-03-23T06:05:07;9.50;99.90
9193;DHT22;4631;49.296;10.560;2024-03-23T06:07:35;9.50;99.90
9193;DHT22;4631;49.296;10.560;2024-03-23T06:10:00;9.50;99.90
9193;DHT22;4631;49.296;10.560;2024-03-23T06:12:27;9.50;99.90
9193;DHT22;4631;49.296;10.560;2024-03-23T06:14:53;9.40;99.90
9193;DHT22;4631;49.296;10.560;2024-03-23T06:17:19;9.40;99.90
9193;DHT22;4631;49.296;10.560;2024-03-23T06:19:46;9.40;99.90
9193;DHT22;4631;49.296;10.560;2024-03-23T06:22:12;9.50;99.90
9193;DHT22;4631;49.296;10.560;2024-03-23T06:24:39;9.50;99.90
9193;DHT22;4631;49.296;10.560;2024-03-23T06:27:06;9.50;99.90
9193;DHT22;4631;49.296;10.560;2024-03-23T06:29:32;9.50;99.90
9193;DHT22;4631;49.296;10.560;2024-03-23T06:31:58;9.50;99.90
9193;DHT22;4631;49.296;10.560;2024-03-23T06:34:24;9.50;99.90
9193;DHT22;4631;49.296;10.560;2024-03-23T06:36:51;9.50;99.90
9193;DHT22;4631;49.296;10.560;2024-03-23T06:39:16;9.50;99.90
9193;DHT22;4631;49.296;10.560;2024-03-23T06:41:51;9.50;99.90
9193;DHT22;4631;49.296;10.560;2024-03-23T06:44:17;9.50;99.90
9193;DHT22;4631;49.296;10.560;2024-03-23T06:46:43;9.60;99.90
9193;DHT22;4631;49.296;10.560;2024-03-23T06:49:10;9.50;99.90
9193;DHT22;4631;49.296;10.560;2024-03-23T06:51:36;9.60;99.90
9193;DHT22;4631;49.296;10.560;2024-03-23T06:54:03;9.60;99.90
9193;DHT22;4631;49.296;10.560;2024-03-23T06:56:29;9.60;99.90
9193;DHT22;4631;49.296;10.560;2024-03-23T06:58:57;9.50;99.90
9193;DHT22;4631;49.296;10.560;2024-03-23T07:01:23;9.50;99.90
9193;DHT22;4631;49.296;10.560;2024-03-23T07:03:49;9.50;99.90
9193;DHT22;4631;49.296;10.560;2024-03-23T07:06:16;9.50;99.90
9193;DHT22;4631;49.296;10.560;2024-03-23T07:08:41;9.50;99.90
9193;DHT22;4631;49.296;10.560;2024-03-23T07:11:08;9.40;99.90
9193;DHT22;4631;49.296;10.560;2024-03-23T07:13:34;9.30;99.90
9193;DHT22;4631;49.296;10.560;2024-03-23T07:16:02;9.20;99.90
9193;DHT22;4631;49.296;10.560;2024-03-23T07:18:27;9.20;99.90
9193;DHT22;4631;49.296;10.560;2024-03-23T07:20:54;9.20;99.90
9193;DHT22;4631;49.296;10.560;2024-03-23T07:23:22;9.10;99.90
9193;DHT22;4631;49.296;10.560;2024-03-23T07:25:58;9.10;99.90
9193;DHT22;4631;49.296;10.560;2024-03-23T07:28:23;9.10;99.90
9193;DHT22;4631;49.296;10.560;2024-03-23T07:31:01;9.20;99.90
9193;DHT22;4631;49.296;10.560;2024-03-23T07:33:27;9.20;99.90
9193;DHT22;4631;49.296;10.560;2024-03-23T07:35:54;9.20;99.90
9193;DHT22;4631;49.296;10.560;2024-03-23T07:38:19;9.20;99.90
9193;DHT22;4631;49.296;10.560;2024-03-23T07:40:46;9.20;99.90
9193;DHT22;4631;49.296;10.560;2024-03-23T07:43:11;9.10;99.90
9193;DHT22;4631;49.296;10.560;2024-03-23T07:45:38;9.20;99.90
9193;DHT22;4631;49.296;10.560;2024-03-23T07:48:05;9.30;99.90
9193;DHT22;4631;49.296;10.560;2024-03-23T07:50:32;9.30;99.90
9193;DHT22;4631;49.296;10.560;2024-03-23T07:52:58;9.30;99.90
9193;DHT22;4631;49.296;10.560;2024-03-23T07:55:25;9.30;99.90
9193;DHT22;4631;49.296;10.560;2024-03-23T07:57:50;9.40;99.90
9193;DHT22;4631;49.296;10.560;2024-03-23T08:00:20;9.40;99.90
9193;DHT22;4631;49.296;10.560;2024-03-23T08:02:45;9.50;99.90
9193;DHT22;4631;49.296;10.560;2024-03-23T08:05:13;9.60;99.90
9193;DHT22;4631;49.296;10.560;2024-03-23T08:07:39;9.50;99.90
9193;DHT22;4631;49.296;10.560;2024-03-23T08:10:06;9.40;99.90
9193;DHT22;4631;49.296;10.560;2024-03-23T08:12:32;9.30;99.90
9193;DHT22;4631;49.296;10.560;2024-03-23T08:14:58;9.20;99.90
9193;DHT22;4631;49.296;10.560;2024-03-23T08:17:24;8.90;99.90
9193;DHT22;4631;49.296;10.560;2024-03-23T08:19:51;8.70;99.90
9193;DHT22;4631;49.296;10.560;2024-03-23T08:22:19;8.50;99.90
9193;DHT22;4631;49.296;10.560;2024-03-23T08:24:46;8.30;99.90
9193;DHT22;4631;49.296;10.560;2024-03-23T08:27:11;8.20;99.90
9193;DHT22;4631;49.296;10.560;2024-03-23T08:29:38;8.10;99.90
9193;DHT22;4631;49.296;10.560;2024-03-23T08:32:04;8.00;99.90
9193;DHT22;4631;49.296;10.560;2024-03-23T08:34:30;7.90;99.90
9193;DHT22;4631;49.296;10.560;2024-03-23T08:36:56;7.80;99.90
9193;DHT22;4631;49.296;10.560;2024-03-23T08:39:24;7.80;99.90
9193;DHT22;4631;49.296;10.560;2024-03-23T08:41:50;7.80;99.90
9193;DHT22;4631;49.296;10.560;2024-03-23T08:44:17;7.70;99.90
9193;DHT22;4631;49.296;10.560;2024-03-23T08:46:42;7.70;99.90
9193;DHT22;4631;49.296;10.560;2024-03-23T08:49:09;7.80;99.90
9193;DHT22;4631;49.296;10.560;2024-03-23T08:51:34;7.80;99.90
9193;DHT22;4631;49.296;10.560;2024-03-23T08:54:01;7.70;99.90
9193;DHT22;4631;49.296;10.560;2024-03-23T08:56:28;7.70;99.90
9193;DHT22;4631;49.296;10.560;2024-03-23T08:58:55;7.60;99.90
9193;DHT22;4631;49.296;10.560;2024-03-23T09:01:20;7.60;99.90
9193;DHT22;4631;49.296;10.560;2024-03-23T09:03:47;7.60;99.90
9193;DHT22;4631;49.296;10.560;2024-03-23T09:06:13;7.60;99.90
9193;DHT22;4631;49.296;10.560;2024-03-23T09:08:40;7.60;99.90
9193;DHT22;4631;49.296;10.560;2024-03-23T09:11:06;7.60;99.90
9193;DHT22;4631;49.296;10.560;2024-03-23T09:13:34;7.70;99.90
9193;DHT22;4631;49.296;10.560;2024-03-23T09:16:00;7.60;99.90
9193;DHT22;4631;49.296;10.560;2024-03-23T09:18:26;7.50;99.90
9193;DHT22;4631;49.296;10.560;2024-03-23T09:20:52;7.50;99.90
9193;DHT22;4631;49.296;10.560;2024-03-23T09:23:19;7.50;99.90
9193;DHT22;4631;49.296;10.560;2024-03-23T09:25:45;7.60;99.90
9193;DHT22;4631;49.296;10.560;2024-03-23T09:28:12;7.60;99.90
9193;DHT22;4631;49.296;10.560;2024-03-23T09:30:39;7.80;99.90
9193;DHT22;4631;49.296;10.560;2024-03-23T09:33:07;7.80;99.90
9193;DHT22;4631;49.296;10.560;2024-03-23T09:35:36;7.80;99.90
9193;DHT22;4631;49.296;10.560;2024-03-23T09:38:02;7.90;99.90
9193;DHT22;4631;49.296;10.560;2024-03-23T09:40:28;7.90;99.90
9193;DHT22;4631;49.296;10.560;2024-03-23T09:42:55;7.90;99.90
9193;DHT22;4631;49.296;10.560;2024-03-23T09:45:21;7.90;99.90
9193;DHT22;4631;49.296;10.560;2024-03-23T09:47:49;7.80;99.90
9193;DHT22;4631;49.296;10.560;2024-03-23T09:50:16;7.70;99.90
9193;DHT22;4631;49.296;10.560;2024-03-23T09:52:42;7.60;99.90
9193;DHT22;4631;49.296;10.560;2024-03-23T09:55:08;7.50;99.90
9193;DHT22;4631;49.296;10.560;2024-03-23T09:57:35;7.50;99.90
9193;DHT22;4631;49.296;10.560;2024-03-23T10:00:01;7.40;99.90
9193;DHT22;4631;49.296;10.560;2024-03-23T10:02:27;7.40;99.90
9193;DHT22;4631;49.296;10.560;2024-03-23T10:04:55;7.30;99.90
9193;DHT22;4631;49.296;10.560;2024-03-23T10:07:22;7.30;99.90
9193;DHT22;4631;49.296;10.560;2024-03-23T10:09:48;7.20;99.90
9193;DHT22;4631;49.296;10.560;2024-03-23T10:12:16;7.30;99.90
9193;DHT22;4631;49.296;10.560;2024-03-23T10:14:42;7.30;99.90
9193;DHT22;4631;49.296;10.560;2024-03-23T10:17:13;7.40;99.90
9193;DHT22;4631;49.296;10.560;2024-03-23T10:19:43;7.40;99.90
9193;DHT22;4631;49.296;10.560;2024-03-23T10:22:13;7.40;99.90
9193;DHT22;4631;49.296;10.560;2024-03-23T10:24:39;7.50;99.90
9193;DHT22;4631;49.296;10.560;2024-03-23T10:27:05;7.60;99.90
9193;DHT22;4631;49.296;10.560;2024-03-23T10:29:31;7.60;99.90
9193;DHT22;4631;49.296;10.560;2024-03-23T10:32:07;7.70;99.90
9193;DHT22;4631;49.296;10.560;2024-03-23T10:34:32;7.60;99.90
9193;DHT22;4631;49.296;10.560;2024-03-23T10:36:59;7.50;99.90
9193;DHT22;4631;49.296;10.560;2024-03-23T10:39:28;7.50;99.90
9193;DHT22;4631;49.296;10.560;2024-03-23T10:41:55;7.40;99.90
9193;DHT22;4631;49.296;10.560;2024-03-23T10:44:21;7.40;99.90
9193;DHT22;4631;49.296;10.560;2024-03-23T10:46:50;7.40;99.90
9193;DHT22;4631;49.296;10.560;2024-03-23T10:49:16;7.50;99.90
9193;DHT22;4631;49.296;10.560;2024-03-23T10:51:42;7.50;99.90
9193;DHT22;4631;49.296;10.560;2024-03-23T10:54:08;7.50;99.90
9193;DHT22;4631;49.296;10.560;2024-03-23T10:56:39;7.60;99.90
9193;DHT22;4631;49.296;10.560;2024-03-23T10:59:05;7.70;99.90
9193;DHT22;4631;49.296;10.560;2024-03-23T11:01:33;7.80;99.90
9193;DHT22;4631;49.296;10.560;2024-03-23T11:03:59;7.90;99.90
9193;DHT22;4631;49.296;10.560;2024-03-23T11:06:35;8.10;99.90
9193;DHT22;4631;49.296;10.560;2024-03-23T11:09:01;8.10;99.90
9193;DHT22;4631;49.296;10.560;2024-03-23T11:11:28;8.10;99.90
9193;DHT22;4631;49.296;10.560;2024-03-23T11:13:59;8.20;99.90
9193;DHT22;4631;49.296;10.560;2024-03-23T11:16:26;8.20;99.90
9193;DHT22;4631;49.296;10.560;2024-03-23T11:18:53;8.20;99.90
9193;DHT22;4631;49.296;10.560;2024-03-23T11:24:13;8.30;99.90
9193;DHT22;4631;49.296;10.560;2024-03-23T11:26:40;8.30;99.90
9193;DHT22;4631;49.296;10.560;2024-03-23T11:29:10;8.50;99.90
9193;DHT22;4631;49.296;10.560;2024-03-23T11:31:37;8.60;99.90
9193;DHT22;4631;49.296;10.560;2024-03-23T11:34:04;8.60;99.90
9193;DHT22;4631;49.296;10.560;2024-03-23T11:36:30;8.90;99.90
9193;DHT22;4631;49.296;10.560;2024-03-23T11:38:56;9.20;99.90
9193;DHT22;4631;49.296;10.560;2024-03-23T11:41:23;9.20;99.90
9193;DHT22;4631;49.296;10.560;2024-03-23T11:43:48;9.10;99.90
9193;DHT22;4631;49.296;10.560;2024-03-23T11:46:23;9.00;99.90
9193;DHT22;4631;49.296;10.560;2024-03-23T11:48:51;9.20;99.90
9193;DHT22;4631;49.296;10.560;2024-03-23T11:51:18;9.50;99.90
9193;DHT22;4631;49.296;10.560;2024-03-23T11:53:44;9.70;99.90
9193;DHT22;4631;49.296;10.560;2024-03-23T11:56:10;9.90;99.90
9193;DHT22;4631;49.296;10.560;2024-03-23T11:58:36;10.10;99.90
9193;DHT22;4631;49.296;10.560;2024-03-23T12:01:03;10.40;99.90
9193;DHT22;4631;49.296;10.560;2024-03-23T12:03:31;10.60;99.90
9193;DHT22;4631;49.296;10.560;2024-03-23T12:05:59;10.70;99.90
9193;DHT22;4631;49.296;10.560;2024-03-23T12:08:25;10.80;99.90
9193;DHT22;4631;49.296;10.560;2024-03-23T12:10:52;10.70;99.90
9193;DHT22;4631;49.296;10.560;2024-03-23T12:13:19;10.70;99.90
9193;DHT22;4631;49.296;10.560;2024-03-23T12:15:46;10.60;99.90
9193;DHT22;4631;49.296;10.560;2024-03-23T12:18:11;10.40;99.90
9193;DHT22;4631;49.296;10.560;2024-03-23T12:20:39;10.20;99.90
9193;DHT22;4631;49.296;10.560;2024-03-23T12:23:06;10.20;99.90
9193;DHT22;4631;49.296;10.560;2024-03-23T12:25:33;10.10;99.90
9193;DHT22;4631;49.296;10.560;2024-03-23T12:27:59;10.00;99.90
9193;DHT22;4631;49.296;10.560;2024-03-23T12:30:26;9.90;99.90
9193;DHT22;4631;49.296;10.560;2024-03-23T12:32:51;9.70;99.90
9193;DHT22;4631;49.296;10.560;2024-03-23T12:35:18;9.50;99.90
9193;DHT22;4631;49.296;10.560;2024-03-23T12:37:45;9.30;99.90
9193;DHT22;4631;49.296;10.560;2024-03-23T12:40:11;9.30;99.90
9193;DHT22;4631;49.296;10.560;2024-03-23T12:42:37;9.20;99.90
9193;DHT22;4631;49.296;10.560;2024-03-23T12:45:04;9.20;99.90
9193;DHT22;4631;49.296;10.560;2024-03-23T12:47:30;9.20;99.90
9193;DHT22;4631;49.296;10.560;2024-03-23T12:49:57;9.50;99.90
9193;DHT22;4631;49.296;10.560;2024-03-23T12:52:23;9.80;99.90
9193;DHT22;4631;49.296;10.560;2024-03-23T12:54:55;10.00;99.90
9193;DHT22;4631;49.296;10.560;2024-03-23T12:57:22;10.00;99.90
9193;DHT22;4631;49.296;10.560;2024-03-23T12:59:48;9.80;99.90
9193;DHT22;4631;49.296;10.560;2024-03-23T13:02:16;9.80;99.90
9193;DHT22;4631;49.296;10.560;2024-03-23T13:04:43;9.80;99.90
9193;DHT22;4631;49.296;10.560;2024-03-23T13:07:09;10.00;99.90
9193;DHT22;4631;49.296;10.560;2024-03-23T13:09:36;9.90;99.90
9193;DHT22;4631;49.296;10.560;2024-03-23T13:12:03;9.80;99.90
9193;DHT22;4631;49.296;10.560;2024-03-23T13:14:30;9.70;99.90
9193;DHT22;4631;49.296;10.560;2024-03-23T13:16:55;9.70;99.90
9193;DHT22;4631;49.296;10.560;2024-03-23T13:19:22;9.90;99.90
9193;DHT22;4631;49.296;10.560;2024-03-23T13:21:52;10.10;99.90
9193;DHT22;4631;49.296;10.560;2024-03-23T13:24:21;10.00;99.90
9193;DHT22;4631;49.296;10.560;2024-03-23T13:26:46;10.20;99.90
9193;DHT22;4631;49.296;10.560;2024-03-23T13:29:14;10.50;99.90
9193;DHT22;4631;49.296;10.560;2024-03-23T13:31:40;10.90;99.90
9193;DHT22;4631;49.296;10.560;2024-03-23T13:34:07;10.80;99.90
9193;DHT22;4631;49.296;10.560;2024-03-23T13:36:32;10.50;99.90
9193;DHT22;4631;49.296;10.560;2024-03-23T13:38:59;10.20;99.90
9193;DHT22;4631;49.296;10.560;2024-03-23T13:41:24;10.00;99.90
9193;DHT22;4631;49.296;10.560;2024-03-23T13:43:51;9.80;99.90
9193;DHT22;4631;49.296;10.560;2024-03-23T13:46:18;9.70;99.90
9193;DHT22;4631;49.296;10.560;2024-03-23T13:48:45;9.70;99.90
9193;DHT22;4631;49.296;10.560;2024-03-23T13:51:10;9.70;99.90
9193;DHT22;4631;49.296;10.560;2024-03-23T13:53:38;9.60;99.90
9193;DHT22;4631;49.296;10.560;2024-03-23T13:56:04;9.50;99.90
9193;DHT22;4631;49.296;10.560;2024-03-23T13:58:30;9.50;99.90
9193;DHT22;4631;49.296;10.560;2024-03-23T14:00:56;9.30;99.90
9193;DHT22;4631;49.296;10.560;2024-03-23T14:03:24;9.40;99.90
9193;DHT22;4631;49.296;10.560;2024-03-23T14:05:50;9.50;99.90
9193;DHT22;4631;49.296;10.560;2024-03-23T14:08:18;9.90;99.90
9193;DHT22;4631;49.296;10.560;2024-03-23T14:10:43;10.20;99.90
9193;DHT22;4631;49.296;10.560;2024-03-23T14:13:10;10.10;99.90
9193;DHT22;4631;49.296;10.560;2024-03-23T14:15:35;9.90;99.90
9193;DHT22;4631;49.296;10.560;2024-03-23T14:18:03;9.70;99.90
9193;DHT22;4631;49.296;10.560;2024-03-23T14:20:30;9.40;99.90
9193;DHT22;4631;49.296;10.560;2024-03-23T14:22:57;9.30;99.90
9193;DHT22;4631;49.296;10.560;2024-03-23T14:25:22;9.40;99.90
9193;DHT22;4631;49.296;10.560;2024-03-23T14:27:54;9.80;99.90
9193;DHT22;4631;49.296;10.560;2024-03-23T14:30:20;9.90;99.90
9193;DHT22;4631;49.296;10.560;2024-03-23T14:32:46;9.80;99.90
9193;DHT22;4631;49.296;10.560;2024-03-23T14:35:12;9.60;99.90
9193;DHT22;4631;49.296;10.560;2024-03-23T14:37:40;9.40;99.90
9193;DHT22;4631;49.296;10.560;2024-03-23T14:40:07;8.50;99.90
9193;DHT22;4631;49.296;10.560;2024-03-23T14:42:34;7.80;99.90
9193;DHT22;4631;49.296;10.560;2024-03-23T14:45:00;7.20;99.90
9193;DHT22;4631;49.296;10.560;2024-03-23T14:47:26;6.90;99.90
9193;DHT22;4631;49.296;10.560;2024-03-23T14:49:52;6.40;99.90
9193;DHT22;4631;49.296;10.560;2024-03-23T14:52:19;6.30;99.90
9193;DHT22;4631;49.296;10.560;2024-03-23T14:54:46;6.30;99.90
9193;DHT22;4631;49.296;10.560;2024-03-23T14:57:13;6.30;99.90
9193;DHT22;4631;49.296;10.560;2024-03-23T14:59:38;6.40;99.90
9193;DHT22;4631;49.296;10.560;2024-03-23T15:02:06;6.40;99.90
9193;DHT22;4631;49.296;10.560;2024-03-23T15:04:31;6.40;99.90
9193;DHT22;4631;49.296;10.560;2024-03-23T15:06:58;6.30;99.90
9193;DHT22;4631;49.296;10.560;2024-03-23T15:09:23;6.10;99.90
9193;DHT22;4631;49.296;10.560;2024-03-23T15:11:51;6.00;99.90
9193;DHT22;4631;49.296;10.560;2024-03-23T15:14:17;5.90;99.90
9193;DHT22;4631;49.296;10.560;2024-03-23T15:16:45;5.90;99.90
9193;DHT22;4631;49.296;10.560;2024-03-23T15:19:12;6.00;99.90
9193;DHT22;4631;49.296;10.560;2024-03-23T15:21:40;6.30;99.90
9193;DHT22;4631;49.296;10.560;2024-03-23T15:24:06;6.60;99.90
9193;DHT22;4631;49.296;10.560;2024-03-23T15:26:34;6.80;99.90
9193;DHT22;4631;49.296;10.560;2024-03-23T15:29:01;6.90;99.90
9193;DHT22;4631;49.296;10.560;2024-03-23T15:31:37;7.10;99.90
9193;DHT22;4631;49.296;10.560;2024-03-23T15:34:03;7.20;99.90
9193;DHT22;4631;49.296;10.560;2024-03-23T15:36:30;7.30;99.90
9193;DHT22;4631;49.296;10.560;2024-03-23T15:38:56;7.60;99.90
9193;DHT22;4631;49.296;10.560;2024-03-23T15:41:22;7.80;99.90
9193;DHT22;4631;49.296;10.560;2024-03-23T15:43:49;7.70;99.90
9193;DHT22;4631;49.296;10.560;2024-03-23T15:46:17;7.70;99.90
9193;DHT22;4631;49.296;10.560;2024-03-23T15:48:44;7.70;99.90
9193;DHT22;4631;49.296;10.560;2024-03-23T15:51:12;7.70;99.90
9193;DHT22;4631;49.296;10.560;2024-03-23T15:53:38;7.80;99.90
9193;DHT22;4631;49.296;10.560;2024-03-23T15:56:05;7.70;99.90
9193;DHT22;4631;49.296;10.560;2024-03-23T15:58:31;7.70;99.90
9193;DHT22;4631;49.296;10.560;2024-03-23T16:00:58;7.70;99.90
9193;DHT22;4631;49.296;10.560;2024-03-23T16:03:25;7.50;99.90
9193;DHT22;4631;49.296;10.560;2024-03-23T16:05:53;7.30;99.90
9193;DHT22;4631;49.296;10.560;2024-03-23T16:08:19;7.00;99.90
9193;DHT22;4631;49.296;10.560;2024-03-23T16:10:45;6.70;99.90
9193;DHT22;4631;49.296;10.560;2024-03-23T16:13:11;6.80;99.90
9193;DHT22;4631;49.296;10.560;2024-03-23T16:15:38;6.80;99.90
9193;DHT22;4631;49.296;10.560;2024-03-23T16:18:03;6.90;99.90
9193;DHT22;4631;49.296;10.560;2024-03-23T16:20:31;6.80;99.90
9193;DHT22;4631;49.296;10.560;2024-03-23T16:22:59;6.80;99.90
9193;DHT22;4631;49.296;10.560;2024-03-23T16:25:26;6.70;99.90
9193;DHT22;4631;49.296;10.560;2024-03-23T16:27:52;6.70;99.90
9193;DHT22;4631;49.296;10.560;2024-03-23T16:30:18;6.60;99.90
9193;DHT22;4631;49.296;10.560;2024-03-23T16:32:45;6.60;99.90
9193;DHT22;4631;49.296;10.560;2024-03-23T16:35:12;6.60;99.90
9193;DHT22;4631;49.296;10.560;2024-03-23T16:37:39;6.50;99.90
9193;DHT22;4631;49.296;10.560;2024-03-23T16:40:06;6.50;99.90
9193;DHT22;4631;49.296;10.560;2024-03-23T16:42:33;6.40;99.90
9193;DHT22;4631;49.296;10.560;2024-03-23T16:45:00;6.40;99.90
9193;DHT22;4631;49.296;10.560;2024-03-23T16:47:25;6.40;99.90
9193;DHT22;4631;49.296;10.560;2024-03-23T16:49:52;6.40;99.90
9193;DHT22;4631;49.296;10.560;2024-03-23T16:52:18;6.50;99.90